Time;durP1;ratioP1;P1;durP2;ratioP2;P2;SDS_P1;SDS_P2;PMS_P1;PMS_P2;Temp;Humidity;BMP_temperature;BMP_pressure;BME280_temperature;BME280_humidity;BME280_pressure;Samples;Min_cycle;Max_cycle;Signal;HPM_P1;HPM_P2
2022/08/18 00:01:21;;;;;;;;;;;15.70;99.90;;;;;;5089331;28;19931;-55
2022/08/18 00:03:49;;;;;;;;;;;15.60;99.90;;;;;;5087864;28;19925;-60
2022/08/18 00:06:28;;;;;;;;;;;15.60;99.90;;;;;;5089068;28;19924;-54
2022/08/18 00:09:00;;;;;;;;;;;15.60;99.90;;;;;;5088972;28;19924;-54
2022/08/18 00:11:29;;;;;;;;;;;15.60;99.90;;;;;;5088799;28;19928;-56
2022/08/18 00:14:10;;;;;;;;;;;15.60;99.90;;;;;;5075455;28;19931;-56
2022/08/18 00:16:45;;;;;;;;;;;15.60;99.90;;;;;;5088726;28;19924;-61
2022/08/18 00:19:12;;;;;;;;;;;15.50;99.90;;;;;;5088787;28;19925;-55
2022/08/18 00:21:40;;;;;;;;;;;15.60;99.90;;;;;;5089302;28;19924;-55
2022/08/18 00:24:07;;;;;;;;;;;15.50;99.90;;;;;;5088453;28;19928;-55
2022/08/18 00:26:35;;;;;;;;;;;15.50;99.90;;;;;;5087270;28;20310;-53
2022/08/18 00:29:03;;;;;;;;;;;15.50;99.90;;;;;;5083228;28;19924;-55
2022/08/18 00:31:31;;;;;;;;;;;15.50;99.90;;;;;;5088756;28;20477;-59
2022/08/18 00:33:59;;;;;;;;;;;15.50;99.90;;;;;;5088555;28;20482;-60
2022/08/18 00:36:27;;;;;;;;;;;15.50;99.90;;;;;;5088356;28;20374;-61
2022/08/18 00:38:54;;;;;;;;;;;15.50;99.90;;;;;;5088710;28;19928;-60
2022/08/18 00:41:25;;;;;;;;;;;15.50;99.90;;;;;;5088693;28;19928;-60
2022/08/18 00:43:53;;;;;;;;;;;15.40;99.90;;;;;;5057762;28;20110;-60
2022/08/18 00:46:22;;;;;;;;;;;15.50;99.90;;;;;;5070638;28;19931;-59
2022/08/18 00:48:51;;;;;;;;;;;15.50;99.90;;;;;;5088588;28;19931;-61
2022/08/18 00:51:38;;;;;;;;;;;15.50;99.90;;;;;;5086937;28;20396;-60
2022/08/18 00:54:09;;;;;;;;;;;15.50;99.90;;;;;;5087034;28;19924;-61
2022/08/18 00:56:41;;;;;;;;;;;15.50;99.90;;;;;;5088603;28;19925;-61
2022/08/18 00:59:27;;;;;;;;;;;15.50;99.90;;;;;;5084404;28;19958;-60
2022/08/18 01:02:01;;;;;;;;;;;15.60;99.90;;;;;;5087243;28;19924;-61
2022/08/18 01:04:34;;;;;;;;;;;15.60;99.90;;;;;;5083379;28;19928;-56
2022/08/18 01:07:28;;;;;;;;;;;15.60;99.90;;;;;;5086478;28;19934;-56
2022/08/18 01:09:59;;;;;;;;;;;15.60;99.90;;;;;;5085403;28;19955;-55
2022/08/18 01:12:26;;;;;;;;;;;15.50;99.90;;;;;;5084426;28;19936;-57
2022/08/18 01:15:13;;;;;;;;;;;15.60;99.90;;;;;;5087254;28;20323;-60
2022/08/18 01:23:38;;;;;;;;;;;15.60;99.90;;;;;;5088061;28;19933;-60
2022/08/18 01:26:08;;;;;;;;;;;15.60;99.90;;;;;;5088442;28;19924;-56
2022/08/18 01:28:37;;;;;;;;;;;15.60;99.90;;;;;;5086513;28;19931;-54
2022/08/18 01:31:05;;;;;;;;;;;15.60;99.90;;;;;;5063368;28;20388;-54
2022/08/18 01:33:35;;;;;;;;;;;15.60;99.90;;;;;;5071313;28;20287;-54
2022/08/18 01:36:04;;;;;;;;;;;15.60;99.90;;;;;;5071279;28;19932;-54
2022/08/18 01:38:32;;;;;;;;;;;15.60;99.90;;;;;;5081601;28;20390;-54
2022/08/18 01:40:59;;;;;;;;;;;15.60;99.90;;;;;;5091574;28;19924;-57
2022/08/18 01:43:47;;;;;;;;;;;15.60;99.90;;;;;;5078028;28;20284;-55
2022/08/18 01:46:18;;;;;;;;;;;15.60;99.90;;;;;;5078096;28;19924;-54
2022/08/18 01:48:47;;;;;;;;;;;15.60;99.90;;;;;;5094398;28;20267;-54
2022/08/18 01:51:16;;;;;;;;;;;15.60;99.90;;;;;;5095042;28;19924;-53
2022/08/18 01:53:44;;;;;;;;;;;15.60;99.90;;;;;;5093636;28;19932;-54
2022/08/18 01:56:16;;;;;;;;;;;15.60;99.90;;;;;;5094946;28;19924;-57
2022/08/18 01:58:46;;;;;;;;;;;15.60;99.90;;;;;;5094491;28;19925;-58
2022/08/18 02:01:14;;;;;;;;;;;15.60;99.90;;;;;;5094867;28;19924;-59
2022/08/18 02:03:54;;;;;;;;;;;15.60;99.90;;;;;;5094828;28;19923;-58
2022/08/18 02:06:41;;;;;;;;;;;15.50;99.90;;;;;;5094426;28;19947;-55
2022/08/18 02:09:14;;;;;;;;;;;15.60;99.90;;;;;;5094619;28;20414;-54
2022/08/18 02:11:50;;;;;;;;;;;15.60;99.90;;;;;;5094701;28;19931;-54
2022/08/18 02:14:22;;;;;;;;;;;15.60;99.90;;;;;;5094076;28;19924;-58
2022/08/18 02:16:57;;;;;;;;;;;15.60;99.90;;;;;;5094474;28;19931;-60
2022/08/18 02:19:37;;;;;;;;;;;15.50;99.90;;;;;;5094528;28;20367;-60
2022/08/18 02:22:05;;;;;;;;;;;15.50;99.90;;;;;;5094492;28;19924;-57
2022/08/18 02:24:33;;;;;;;;;;;15.50;99.90;;;;;;5093172;28;19932;-56
2022/08/18 02:27:00;;;;;;;;;;;15.50;99.90;;;;;;5094371;28;20375;-54
2022/08/18 02:29:28;;;;;;;;;;;15.50;99.90;;;;;;5094382;28;19924;-60
2022/08/18 02:31:55;;;;;;;;;;;15.50;99.90;;;;;;5094230;28;19935;-59
2022/08/18 02:34:24;;;;;;;;;;;15.50;99.90;;;;;;5094181;28;19924;-60
2022/08/18 02:36:51;;;;;;;;;;;15.50;99.90;;;;;;5094075;28;19924;-59
2022/08/18 02:39:19;;;;;;;;;;;15.50;99.90;;;;;;5094080;28;20280;-61
2022/08/18 02:41:46;;;;;;;;;;;15.50;99.90;;;;;;5094043;28;19931;-59
2022/08/18 02:44:14;;;;;;;;;;;15.50;99.90;;;;;;5094002;28;19924;-61
2022/08/18 02:46:42;;;;;;;;;;;15.50;99.90;;;;;;5094004;28;19931;-54
2022/08/18 02:49:09;;;;;;;;;;;15.40;99.90;;;;;;5093801;28;19924;-59
2022/08/18 02:51:37;;;;;;;;;;;15.40;99.90;;;;;;5092828;28;20307;-54
2022/08/18 02:54:08;;;;;;;;;;;15.40;99.90;;;;;;5093836;28;19928;-55
2022/08/18 02:56:35;;;;;;;;;;;15.40;99.90;;;;;;5093813;28;19931;-57
2022/08/18 02:59:10;;;;;;;;;;;15.30;99.90;;;;;;5093450;28;19924;-54
2022/08/18 03:01:39;;;;;;;;;;;15.30;99.90;;;;;;5093772;28;19924;-59
2022/08/18 03:04:07;;;;;;;;;;;15.30;99.90;;;;;;5093661;28;19924;-58
2022/08/18 03:06:35;;;;;;;;;;;15.30;99.90;;;;;;5093410;28;19933;-59
2022/08/18 03:09:04;;;;;;;;;;;15.30;99.90;;;;;;5093513;28;19931;-61
2022/08/18 03:11:32;;;;;;;;;;;15.30;99.90;;;;;;5093548;28;20326;-61
2022/08/18 03:14:00;;;;;;;;;;;15.30;99.90;;;;;;5093497;28;19931;-61
2022/08/18 03:16:30;;;;;;;;;;;15.30;99.90;;;;;;5093250;28;19923;-60
2022/08/18 03:18:58;;;;;;;;;;;15.30;99.90;;;;;;5093483;28;19924;-56
2022/08/18 03:21:26;;;;;;;;;;;15.30;99.90;;;;;;5093200;28;19924;-60
2022/08/18 03:23:55;;;;;;;;;;;15.30;99.90;;;;;;5093203;28;19924;-59
2022/08/18 03:26:28;;;;;;;;;;;15.30;99.90;;;;;;5093186;28;20401;-58
2022/08/18 03:28:57;;;;;;;;;;;15.30;99.90;;;;;;5093258;28;19925;-54
2022/08/18 03:31:25;;;;;;;;;;;15.40;99.90;;;;;;5093263;28;19931;-54
2022/08/18 03:33:55;;;;;;;;;;;15.30;99.90;;;;;;5092886;28;20371;-55
2022/08/18 03:36:27;;;;;;;;;;;15.40;99.90;;;;;;5093165;28;19932;-55
2022/08/18 03:38:55;;;;;;;;;;;15.40;99.90;;;;;;5091993;28;20303;-55
2022/08/18 03:41:25;;;;;;;;;;;15.40;99.90;;;;;;5092688;28;20280;-55
2022/08/18 03:44:13;;;;;;;;;;;15.40;99.90;;;;;;5092772;28;20379;-54
2022/08/18 03:46:41;;;;;;;;;;;15.40;99.90;;;;;;5092643;28;19937;-54
2022/08/18 03:49:09;;;;;;;;;;;15.40;99.90;;;;;;5092963;28;20298;-54
2022/08/18 03:51:36;;;;;;;;;;;15.50;99.90;;;;;;5092624;28;19924;-54
2022/08/18 03:54:04;;;;;;;;;;;15.50;99.90;;;;;;5074697;28;19924;-54
2022/08/18 03:56:37;;;;;;;;;;;15.50;99.90;;;;;;5092795;28;19932;-54
2022/08/18 03:59:06;;;;;;;;;;;15.50;99.90;;;;;;5092730;28;19955;-53
2022/08/18 04:01:39;;;;;;;;;;;15.50;99.90;;;;;;5091354;28;19924;-53
2022/08/18 04:04:09;;;;;;;;;;;15.50;99.90;;;;;;5091322;28;19931;-54
2022/08/18 04:06:40;;;;;;;;;;;15.50;99.90;;;;;;5092590;28;19928;-54
2022/08/18 04:09:10;;;;;;;;;;;15.50;99.90;;;;;;5092825;28;20295;-59
2022/08/18 04:11:38;;;;;;;;;;;15.50;99.90;;;;;;5091727;28;19928;-57
2022/08/18 04:14:05;;;;;;;;;;;15.50;99.90;;;;;;5091405;28;19947;-59
2022/08/18 04:16:33;;;;;;;;;;;15.50;99.90;;;;;;5092305;28;19924;-56
2022/08/18 04:19:04;;;;;;;;;;;15.50;99.90;;;;;;5091215;28;19924;-60
2022/08/18 04:21:33;;;;;;;;;;;15.50;99.90;;;;;;5092384;28;19939;-59
2022/08/18 04:24:02;;;;;;;;;;;15.50;99.90;;;;;;5090934;28;20299;-60
2022/08/18 04:26:35;;;;;;;;;;;15.50;99.90;;;;;;5092158;28;19931;-60
2022/08/18 04:29:03;;;;;;;;;;;15.50;99.90;;;;;;5092176;28;19998;-60
2022/08/18 04:31:31;;;;;;;;;;;15.40;99.90;;;;;;5092239;28;19924;-57
2022/08/18 04:33:59;;;;;;;;;;;15.40;99.90;;;;;;5092206;28;19947;-58
2022/08/18 04:36:27;;;;;;;;;;;15.40;99.90;;;;;;5091959;28;19924;-55
2022/08/18 04:38:55;;;;;;;;;;;15.40;99.90;;;;;;5092174;28;19931;-56
2022/08/18 04:41:25;;;;;;;;;;;15.40;99.90;;;;;;5092117;28;19931;-59
2022/08/18 04:43:57;;;;;;;;;;;15.40;99.90;;;;;;5092181;28;19924;-58
2022/08/18 04:46:28;;;;;;;;;;;15.50;99.90;;;;;;5092086;28;19931;-56
2022/08/18 04:49:00;;;;;;;;;;;15.40;99.90;;;;;;5072924;28;19924;-59
2022/08/18 04:51:28;;;;;;;;;;;15.40;99.90;;;;;;5068648;28;20575;-61
2022/08/18 04:54:16;;;;;;;;;;;15.40;99.90;;;;;;5068553;28;20391;-60
2022/08/18 04:56:43;;;;;;;;;;;15.40;99.90;;;;;;5067018;28;20384;-59
2022/08/18 04:59:12;;;;;;;;;;;15.40;99.90;;;;;;5086829;28;19924;-61
2022/08/18 05:01:40;;;;;;;;;;;15.50;99.90;;;;;;5085749;28;19939;-60
2022/08/18 05:04:08;;;;;;;;;;;15.50;99.90;;;;;;5065329;28;19924;-61
2022/08/18 05:06:36;;;;;;;;;;;15.50;99.90;;;;;;5065009;28;19924;-60
2022/08/18 05:09:05;;;;;;;;;;;15.50;99.90;;;;;;5084772;28;19935;-61
2022/08/18 05:11:33;;;;;;;;;;;15.50;99.90;;;;;;5088197;28;19932;-60
2022/08/18 05:14:01;;;;;;;;;;;15.40;99.90;;;;;;5088173;28;19924;-55
2022/08/18 05:16:34;;;;;;;;;;;15.40;99.90;;;;;;5088282;28;20282;-55
2022/08/18 05:19:06;;;;;;;;;;;15.40;99.90;;;;;;5086745;28;19928;-60
2022/08/18 05:21:36;;;;;;;;;;;15.40;99.90;;;;;;5089616;28;20496;-54
2022/08/18 05:24:05;;;;;;;;;;;15.50;99.90;;;;;;5091974;28;20414;-55
2022/08/18 05:26:33;;;;;;;;;;;15.50;99.90;;;;;;5090356;28;20386;-61
2022/08/18 05:29:00;;;;;;;;;;;15.50;99.90;;;;;;5087495;28;19931;-61
2022/08/18 05:31:46;;;;;;;;;;;15.50;99.90;;;;;;5090460;28;19924;-58
2022/08/18 05:34:13;;;;;;;;;;;15.50;99.90;;;;;;5076248;28;19924;-61
2022/08/18 05:36:50;;;;;;;;;;;15.50;99.90;;;;;;5071659;28;20376;-60
2022/08/18 05:39:18;;;;;;;;;;;15.50;99.90;;;;;;5090965;28;19924;-61
2022/08/18 05:41:49;;;;;;;;;;;15.50;99.90;;;;;;5090049;28;19931;-61
2022/08/18 05:44:27;;;;;;;;;;;15.50;99.90;;;;;;5087103;28;19924;-61
2022/08/18 05:47:01;;;;;;;;;;;15.50;99.90;;;;;;5087910;28;19928;-61
2022/08/18 05:49:29;;;;;;;;;;;15.50;99.90;;;;;;5073173;28;19951;-60
2022/08/18 05:51:59;;;;;;;;;;;15.60;99.90;;;;;;5070832;28;20414;-60
2022/08/18 05:57:20;;;;;;;;;;;15.60;99.90;;;;;;5091792;28;19928;-61
2022/08/18 05:59:51;;;;;;;;;;;15.60;99.90;;;;;;5091736;28;19928;-56
2022/08/18 06:02:21;;;;;;;;;;;15.60;99.90;;;;;;5088698;28;19924;-60
2022/08/18 06:05:04;;;;;;;;;;;15.60;99.90;;;;;;5069096;28;20360;-58
2022/08/18 06:07:48;;;;;;;;;;;15.70;99.90;;;;;;5074748;28;19998;-59
2022/08/18 06:10:15;;;;;;;;;;;15.70;99.90;;;;;;5090384;28;19924;-61
2022/08/18 06:12:45;;;;;;;;;;;15.70;99.90;;;;;;5089821;28;20315;-61
2022/08/18 06:15:16;;;;;;;;;;;15.70;99.90;;;;;;5087810;28;19928;-59
2022/08/18 06:17:47;;;;;;;;;;;15.80;99.90;;;;;;5087821;28;19924;-61
2022/08/18 06:20:15;;;;;;;;;;;15.80;99.90;;;;;;5069261;28;20292;-57
2022/08/18 06:22:55;;;;;;;;;;;15.70;99.90;;;;;;5078263;28;19928;-56
2022/08/18 06:25:28;;;;;;;;;;;15.80;99.90;;;;;;5090950;28;19924;-55
2022/08/18 06:27:57;;;;;;;;;;;15.80;99.90;;;;;;5091016;28;20396;-54
2022/08/18 06:30:43;;;;;;;;;;;15.80;99.90;;;;;;5090880;28;20426;-54
2022/08/18 06:33:19;;;;;;;;;;;15.80;99.90;;;;;;5086921;28;19932;-54
2022/08/18 06:35:53;;;;;;;;;;;15.80;99.90;;;;;;5071001;28;20399;-54
2022/08/18 06:38:37;;;;;;;;;;;15.70;99.90;;;;;;5081744;28;19924;-54
2022/08/18 06:41:07;;;;;;;;;;;15.80;99.90;;;;;;5091013;28;19924;-61
2022/08/18 06:44:05;;;;;;;;;;;15.80;99.90;;;;;;5090692;28;19928;-55
2022/08/18 06:46:33;;;;;;;;;;;15.80;99.90;;;;;;5090837;28;19959;-60
2022/08/18 06:49:05;;;;;;;;;;;15.80;99.90;;;;;;5081674;28;19924;-61
2022/08/18 06:51:33;;;;;;;;;;;15.80;99.90;;;;;;5085638;28;19936;-59
2022/08/18 06:54:25;;;;;;;;;;;15.80;99.90;;;;;;5089018;28;19924;-61
2022/08/18 06:56:53;;;;;;;;;;;15.80;99.90;;;;;;5090759;28;20402;-59
2022/08/18 06:59:28;;;;;;;;;;;15.70;99.90;;;;;;5089943;28;20492;-59
2022/08/18 07:02:01;;;;;;;;;;;15.90;99.90;;;;;;5087139;28;20394;-56
2022/08/18 07:04:40;;;;;;;;;;;15.90;99.90;;;;;;5075092;28;20379;-61
2022/08/18 07:07:11;;;;;;;;;;;16.00;99.90;;;;;;5068667;28;20391;-58
2022/08/18 07:09:39;;;;;;;;;;;16.00;99.90;;;;;;5090624;28;19924;-60
2022/08/18 07:12:07;;;;;;;;;;;16.10;99.90;;;;;;5088899;28;19931;-62
2022/08/18 07:14:44;;;;;;;;;;;16.10;99.90;;;;;;5088811;28;20407;-61
2022/08/18 07:17:21;;;;;;;;;;;16.20;99.90;;;;;;5089740;28;20378;-59
2022/08/18 07:20:17;;;;;;;;;;;16.30;99.90;;;;;;5073259;28;19924;-56
2022/08/18 07:22:57;;;;;;;;;;;16.30;99.90;;;;;;5077055;28;19931;-62
2022/08/18 07:25:32;;;;;;;;;;;16.40;99.90;;;;;;5090059;28;19924;-62
2022/08/18 07:28:01;;;;;;;;;;;16.40;99.90;;;;;;5089877;28;19926;-57
2022/08/18 07:30:35;;;;;;;;;;;16.50;99.90;;;;;;5089599;28;19931;-59
2022/08/18 07:33:11;;;;;;;;;;;16.60;99.90;;;;;;5089701;28;19924;-61
2022/08/18 07:35:46;;;;;;;;;;;16.60;99.90;;;;;;5070087;28;19925;-60
2022/08/18 07:38:18;;;;;;;;;;;16.70;99.90;;;;;;5088377;28;19935;-59
2022/08/18 07:41:12;;;;;;;;;;;16.80;99.90;;;;;;5089908;28;19931;-56
2022/08/18 07:43:40;;;;;;;;;;;16.90;99.90;;;;;;5089314;28;19924;-60
2022/08/18 07:46:11;;;;;;;;;;;16.90;99.90;;;;;;5088535;28;19931;-60
2022/08/18 07:48:40;;;;;;;;;;;17.00;99.90;;;;;;5087590;28;20272;-59
2022/08/18 07:51:18;;;;;;;;;;;17.10;99.90;;;;;;5068167;28;19924;-55
2022/08/18 07:54:01;;;;;;;;;;;17.20;99.90;;;;;;5084994;28;20272;-61
2022/08/18 07:56:38;;;;;;;;;;;17.20;99.90;;;;;;5089412;28;20395;-57
2022/08/18 07:59:06;;;;;;;;;;;17.30;99.90;;;;;;5089374;28;19924;-54
2022/08/18 08:01:48;;;;;;;;;;;17.30;99.90;;;;;;5088418;28;19928;-60
2022/08/18 08:04:24;;;;;;;;;;;17.30;99.90;;;;;;5079754;28;19924;-61
2022/08/18 08:06:59;;;;;;;;;;;17.40;99.90;;;;;;5064594;28;19924;-62
2022/08/18 08:09:55;;;;;;;;;;;17.40;99.90;;;;;;5065861;28;19924;-60
2022/08/18 08:12:29;;;;;;;;;;;17.40;99.90;;;;;;5070493;28;19935;-61
2022/08/18 08:15:09;;;;;;;;;;;17.40;99.90;;;;;;5088885;28;19924;-61
2022/08/18 08:17:57;;;;;;;;;;;17.50;99.90;;;;;;5085759;28;19935;-64
2022/08/18 08:20:34;;;;;;;;;;;17.50;99.90;;;;;;5046982;28;19925;-62
2022/08/18 08:23:17;;;;;;;;;;;17.60;99.90;;;;;;5078029;28;19924;-62
2022/08/18 08:25:45;;;;;;;;;;;17.60;99.90;;;;;;5071091;28;19935;-62
2022/08/18 08:28:21;;;;;;;;;;;17.70;99.90;;;;;;5088810;28;19940;-60
2022/08/18 08:30:49;;;;;;;;;;;17.70;99.90;;;;;;5089109;28;19931;-62
2022/08/18 08:33:46;;;;;;;;;;;17.60;99.90;;;;;;5088595;28;19935;-61
2022/08/18 08:36:17;;;;;;;;;;;17.60;99.90;;;;;;5067393;28;19939;-59
2022/08/18 08:39:00;;;;;;;;;;;17.60;99.90;;;;;;5083002;28;19924;-58
2022/08/18 08:41:37;;;;;;;;;;;17.60;99.90;;;;;;5088847;28;19924;-59
2022/08/18 08:44:11;;;;;;;;;;;17.70;99.90;;;;;;5088540;28;19931;-60
2022/08/18 08:46:48;;;;;;;;;;;17.80;99.90;;;;;;5088974;28;19928;-56
2022/08/18 08:49:37;;;;;;;;;;;17.90;99.90;;;;;;5085775;28;19929;-59
2022/08/18 08:52:15;;;;;;;;;;;18.10;99.90;;;;;;5069928;28;19924;-60
2022/08/18 08:54:49;;;;;;;;;;;18.30;99.90;;;;;;5088530;28;19931;-55
2022/08/18 08:57:18;;;;;;;;;;;18.50;99.90;;;;;;5090936;28;19924;-55
2022/08/18 08:59:47;;;;;;;;;;;18.50;99.90;;;;;;5092668;28;19939;-55
2022/08/18 09:02:14;;;;;;;;;;;18.60;99.90;;;;;;5092606;28;19939;-55
2022/08/18 09:05:07;;;;;;;;;;;18.80;99.90;;;;;;5080626;28;19939;-54
2022/08/18 09:07:48;;;;;;;;;;;18.90;99.90;;;;;;5073881;28;20398;-55
2022/08/18 09:10:25;;;;;;;;;;;19.00;99.90;;;;;;5091450;28;19924;-58
2022/08/18 09:12:55;;;;;;;;;;;19.20;99.90;;;;;;5092302;28;19924;-58
2022/08/18 09:15:26;;;;;;;;;;;19.20;99.90;;;;;;5091260;28;19924;-60
2022/08/18 09:17:53;;;;;;;;;;;19.30;99.90;;;;;;5092266;28;19928;-62
2022/08/18 09:20:24;;;;;;;;;;;19.40;99.90;;;;;;5081209;28;20438;-61
2022/08/18 09:22:53;;;;;;;;;;;19.50;99.90;;;;;;5079891;28;19932;-59
2022/08/18 09:25:41;;;;;;;;;;;19.60;99.90;;;;;;5092348;28;19931;-60
2022/08/18 09:28:20;;;;;;;;;;;19.70;99.90;;;;;;5092104;28;19924;-58
2022/08/18 09:31:10;;;;;;;;;;;19.80;99.90;;;;;;5092509;28;19928;-61
2022/08/18 09:33:44;;;;;;;;;;;19.90;99.90;;;;;;5091955;28;19924;-57
2022/08/18 09:36:27;;;;;;;;;;;20.00;99.90;;;;;;5076330;28;19924;-60
2022/08/18 09:42:04;;;;;;;;;;;20.00;99.90;;;;;;5091998;28;20116;-62
2022/08/18 09:44:47;;;;;;;;;;;20.00;99.90;;;;;;5091645;28;19924;-60
2022/08/18 09:47:23;;;;;;;;;;;20.00;99.90;;;;;;5091620;28;19928;-60
2022/08/18 09:49:54;;;;;;;;;;;19.90;99.90;;;;;;5088124;28;20247;-59
2022/08/18 09:52:22;;;;;;;;;;;19.80;99.90;;;;;;5073938;28;19924;-57
2022/08/18 09:54:53;;;;;;;;;;;19.70;99.90;;;;;;5091496;28;19924;-61
2022/08/18 09:57:43;;;;;;;;;;;19.80;99.90;;;;;;5091813;28;20276;-59
2022/08/18 10:00:12;;;;;;;;;;;19.80;99.90;;;;;;5091561;28;19932;-62
2022/08/18 10:02:40;;;;;;;;;;;20.00;99.90;;;;;;5091391;28;19924;-61
2022/08/18 10:05:18;;;;;;;;;;;20.10;99.90;;;;;;5086513;28;19932;-58
2022/08/18 10:07:47;;;;;;;;;;;20.30;99.90;;;;;;5074703;28;19924;-59
2022/08/18 10:10:36;;;;;;;;;;;20.40;99.90;;;;;;5090116;28;19931;-57
2022/08/18 10:13:33;;;;;;;;;;;20.50;99.90;;;;;;5091043;28;19931;-59
2022/08/18 10:16:20;;;;;;;;;;;20.70;99.90;;;;;;5091344;28;19947;-57
2022/08/18 10:18:51;;;;;;;;;;;20.70;99.90;;;;;;5091045;28;19924;-57
2022/08/18 10:21:26;;;;;;;;;;;20.80;99.90;;;;;;5077809;28;19924;-54
2022/08/18 10:24:03;;;;;;;;;;;20.90;99.90;;;;;;5087401;28;19928;-55
2022/08/18 10:26:51;;;;;;;;;;;21.10;99.90;;;;;;5091113;28;20390;-56
2022/08/18 10:29:27;;;;;;;;;;;21.30;99.90;;;;;;5090944;28;19928;-56
2022/08/18 10:31:55;;;;;;;;;;;21.30;99.90;;;;;;5090844;28;19947;-56
2022/08/18 10:34:38;;;;;;;;;;;21.30;99.90;;;;;;5090620;28;19938;-57
2022/08/18 10:37:12;;;;;;;;;;;21.30;99.90;;;;;;5071959;28;19928;-54
2022/08/18 10:39:50;;;;;;;;;;;21.30;99.90;;;;;;5091040;28;19924;-54
2022/08/18 10:42:30;;;;;;;;;;;21.20;99.90;;;;;;5090612;28;20303;-55
2022/08/18 10:45:16;;;;;;;;;;;21.30;99.90;;;;;;5090749;28;19935;-56
2022/08/18 10:48:04;;;;;;;;;;;21.20;99.90;;;;;;5087377;28;19924;-57
2022/08/18 10:51:01;;;;;;;;;;;21.10;99.90;;;;;;5079872;28;20307;-61
2022/08/18 10:53:44;;;;;;;;;;;21.00;99.90;;;;;;5083058;28;19928;-55
2022/08/18 10:56:31;;;;;;;;;;;20.90;99.90;;;;;;5090333;28;19928;-60
2022/08/18 10:59:14;;;;;;;;;;;20.80;99.90;;;;;;5090543;28;20314;-61
2022/08/18 11:02:02;;;;;;;;;;;20.80;99.90;;;;;;5089365;28;19924;-58
2022/08/18 11:04:34;;;;;;;;;;;20.60;99.90;;;;;;5090103;28;19924;-59
2022/08/18 11:07:05;;;;;;;;;;;20.50;99.90;;;;;;5072911;28;19929;-56
2022/08/18 11:09:34;;;;;;;;;;;20.50;99.90;;;;;;5070228;28;19952;-56
2022/08/18 11:12:10;;;;;;;;;;;20.30;99.90;;;;;;5071195;28;19932;-61
2022/08/18 11:14:53;;;;;;;;;;;20.30;99.90;;;;;;5089968;28;19951;-61
2022/08/18 11:17:21;;;;;;;;;;;20.20;99.90;;;;;;5088810;28;20034;-56
2022/08/18 11:19:52;;;;;;;;;;;20.10;99.90;;;;;;5089783;28;19931;-54
2022/08/18 11:22:26;;;;;;;;;;;20.10;99.90;;;;;;5074388;28;20296;-54
2022/08/18 11:24:59;;;;;;;;;;;20.20;99.90;;;;;;5088513;28;19928;-56
2022/08/18 11:27:34;;;;;;;;;;;20.30;99.90;;;;;;5089012;28;21593;-62
2022/08/18 11:30:04;;;;;;;;;;;20.40;99.90;;;;;;5089907;28;19924;-62
2022/08/18 11:32:34;;;;;;;;;;;20.50;99.90;;;;;;5089820;28;19928;-54
2022/08/18 11:35:09;;;;;;;;;;;20.60;99.90;;;;;;5069717;28;19924;-55
2022/08/18 11:37:40;;;;;;;;;;;20.60;99.90;;;;;;5073739;28;19924;-55
2022/08/18 11:40:19;;;;;;;;;;;20.60;99.90;;;;;;5090044;28;19924;-54
2022/08/18 11:43:12;;;;;;;;;;;20.60;99.90;;;;;;5089419;28;20283;-61
2022/08/18 11:45:45;;;;;;;;;;;20.50;99.90;;;;;;5088427;28;19939;-59
2022/08/18 11:48:13;;;;;;;;;;;20.40;99.90;;;;;;5089488;28;20287;-56
2022/08/18 11:50:58;;;;;;;;;;;20.30;99.90;;;;;;5086128;28;20383;-55
2022/08/18 11:53:45;;;;;;;;;;;20.20;99.90;;;;;;5080147;28;20375;-56
2022/08/18 11:56:20;;;;;;;;;;;20.10;99.90;;;;;;5089460;28;19925;-53
2022/08/18 11:58:58;;;;;;;;;;;20.00;99.90;;;;;;5089419;28;20493;-60
2022/08/18 12:01:30;;;;;;;;;;;19.90;99.90;;;;;;5088314;28;19931;-56
2022/08/18 12:04:08;;;;;;;;;;;19.90;99.90;;;;;;5085670;28;19924;-60
2022/08/18 12:06:38;;;;;;;;;;;20.00;99.90;;;;;;5077213;28;19924;-58
2022/08/18 12:09:20;;;;;;;;;;;20.10;99.90;;;;;;5085748;28;19924;-61
2022/08/18 12:12:15;;;;;;;;;;;20.30;99.90;;;;;;5089079;28;19924;-60
2022/08/18 12:14:50;;;;;;;;;;;20.50;99.90;;;;;;5088855;28;19924;-57
2022/08/18 12:17:18;;;;;;;;;;;20.80;99.90;;;;;;5070813;28;19925;-57
2022/08/18 12:19:46;;;;;;;;;;;21.20;99.90;;;;;;5089142;28;19924;-60
2022/08/18 12:22:16;;;;;;;;;;;21.60;99.90;;;;;;5076788;28;19939;-62
2022/08/18 12:24:47;;;;;;;;;;;21.90;99.90;;;;;;5088743;28;20212;-62
2022/08/18 12:27:17;;;;;;;;;;;22.00;99.90;;;;;;5088982;28;19932;-58
2022/08/18 12:30:06;;;;;;;;;;;22.10;99.90;;;;;;5088756;28;19932;-59
2022/08/18 12:32:43;;;;;;;;;;;22.00;99.90;;;;;;5088041;28;19924;-63
2022/08/18 12:35:17;;;;;;;;;;;21.90;99.90;;;;;;5088814;28;19924;-61
2022/08/18 12:38:04;;;;;;;;;;;21.80;99.90;;;;;;5076889;28;19924;-61
2022/08/18 12:40:40;;;;;;;;;;;21.70;99.90;;;;;;5087917;28;19928;-58
2022/08/18 12:43:08;;;;;;;;;;;21.70;99.90;;;;;;5088916;28;19924;-60
2022/08/18 12:45:37;;;;;;;;;;;21.60;99.90;;;;;;5088806;28;19931;-59
2022/08/18 12:48:05;;;;;;;;;;;21.60;99.90;;;;;;5088870;28;19928;-62
2022/08/18 12:50:35;;;;;;;;;;;21.50;99.90;;;;;;5088657;28;20183;-58
2022/08/18 12:53:23;;;;;;;;;;;21.60;99.90;;;;;;5079510;28;19932;-60
2022/08/18 12:56:16;;;;;;;;;;;21.50;99.90;;;;;;5087449;28;19924;-56
2022/08/18 12:58:46;;;;;;;;;;;21.60;99.90;;;;;;5088484;28;19947;-57
2022/08/18 13:01:14;;;;;;;;;;;21.60;99.90;;;;;;5087758;28;20405;-61
2022/08/18 13:03:47;;;;;;;;;;;21.60;99.90;;;;;;5083728;28;20470;-62
2022/08/18 13:06:36;;;;;;;;;;;21.60;99.90;;;;;;5081678;28;19939;-58
2022/08/18 13:09:07;;;;;;;;;;;21.60;99.90;;;;;;5066631;28;20375;-62
2022/08/18 13:11:54;;;;;;;;;;;21.50;99.90;;;;;;5088832;28;19928;-60
2022/08/18 13:14:27;;;;;;;;;;;21.50;99.90;;;;;;5087120;28;19924;-58
2022/08/18 13:16:54;;;;;;;;;;;21.50;99.90;;;;;;5088760;28;20351;-61
2022/08/18 13:19:22;;;;;;;;;;;21.50;99.90;;;;;;5088303;28;20314;-56
2022/08/18 13:21:50;;;;;;;;;;;21.50;99.90;;;;;;5082136;28;19931;-60
2022/08/18 13:24:18;;;;;;;;;;;21.50;99.90;;;;;;5086604;28;19931;-57
2022/08/18 13:26:48;;;;;;;;;;;21.50;99.90;;;;;;5088298;28;19998;-61
2022/08/18 13:29:18;;;;;;;;;;;21.60;99.90;;;;;;5087972;28;19939;-61
2022/08/18 13:31:46;;;;;;;;;;;21.60;99.90;;;;;;5088327;28;19924;-62
2022/08/18 13:34:26;;;;;;;;;;;21.70;99.90;;;;;;5088108;28;19924;-61
2022/08/18 13:36:56;;;;;;;;;;;21.80;99.90;;;;;;5080831;28;19931;-55
2022/08/18 13:39:24;;;;;;;;;;;21.90;99.90;;;;;;5085676;28;19928;-55
2022/08/18 13:42:00;;;;;;;;;;;22.00;99.90;;;;;;5088696;28;20230;-55
2022/08/18 13:44:48;;;;;;;;;;;22.20;99.90;;;;;;5091832;28;19935;-55
2022/08/18 13:47:20;;;;;;;;;;;22.40;99.90;;;;;;5091848;28;19924;-55
2022/08/18 13:49:50;;;;;;;;;;;22.50;99.80;;;;;;5091661;28;19924;-59
2022/08/18 13:52:28;;;;;;;;;;;22.40;99.50;;;;;;5085392;28;19924;-60
2022/08/18 13:55:15;;;;;;;;;;;22.30;99.70;;;;;;5090781;28;19924;-61
2022/08/18 13:57:47;;;;;;;;;;;22.20;99.90;;;;;;5091934;28;20386;-56
2022/08/18 14:00:18;;;;;;;;;;;22.10;99.90;;;;;;5090650;28;19955;-55
2022/08/18 14:02:57;;;;;;;;;;;22.10;99.90;;;;;;5091482;28;20287;-56
2022/08/18 14:05:25;;;;;;;;;;;22.10;99.90;;;;;;5091362;28;19951;-55
2022/08/18 14:08:12;;;;;;;;;;;22.00;99.90;;;;;;5084797;28;19924;-55
2022/08/18 14:10:48;;;;;;;;;;;22.00;99.90;;;;;;5091732;28;19928;-56
2022/08/18 14:13:16;;;;;;;;;;;21.90;99.90;;;;;;5091287;28;19935;-54
2022/08/18 14:15:52;;;;;;;;;;;21.90;99.90;;;;;;5091332;28;19935;-59
2022/08/18 14:18:22;;;;;;;;;;;21.90;99.90;;;;;;5091015;28;19925;-61
2022/08/18 14:26:49;;;;;;;;;;;22.30;99.90;;;;;;5091403;28;19954;-60
2022/08/18 14:29:17;;;;;;;;;;;22.40;99.80;;;;;;5090858;28;19924;-61
2022/08/18 14:32:05;;;;;;;;;;;22.40;99.90;;;;;;5091166;28;19951;-61
2022/08/18 14:34:33;;;;;;;;;;;22.30;99.90;;;;;;5090926;28;19931;-61
2022/08/18 14:37:02;;;;;;;;;;;22.30;99.90;;;;;;5088006;28;19928;-58
2022/08/18 14:39:30;;;;;;;;;;;22.20;99.90;;;;;;5090182;28;19931;-61
2022/08/18 14:41:58;;;;;;;;;;;22.20;99.90;;;;;;5089485;28;19924;-62
2022/08/18 14:44:29;;;;;;;;;;;22.10;99.90;;;;;;5090421;28;19925;-55
2022/08/18 14:46:59;;;;;;;;;;;22.10;99.90;;;;;;5090766;28;19931;-56
2022/08/18 14:49:26;;;;;;;;;;;22.00;99.90;;;;;;5089339;28;19936;-59
2022/08/18 14:51:58;;;;;;;;;;;21.90;99.90;;;;;;5087770;28;19935;-55
2022/08/18 14:54:27;;;;;;;;;;;21.80;99.90;;;;;;5089028;28;19931;-54
2022/08/18 14:56:57;;;;;;;;;;;21.70;99.90;;;;;;5088907;28;19931;-60
2022/08/18 14:59:27;;;;;;;;;;;21.70;99.90;;;;;;5089146;28;19929;-56
2022/08/18 15:01:54;;;;;;;;;;;21.60;99.90;;;;;;5089244;28;19924;-55
2022/08/18 15:04:22;;;;;;;;;;;21.50;99.90;;;;;;5090210;28;19924;-56
2022/08/18 15:06:49;;;;;;;;;;;21.50;99.90;;;;;;5090127;28;20012;-56
2022/08/18 15:09:28;;;;;;;;;;;21.50;99.90;;;;;;5088387;28;19931;-57
2022/08/18 15:11:57;;;;;;;;;;;21.50;99.90;;;;;;5090037;28;20426;-62